sensor_id;sensor_type;location;lat;lon;timestamp;pressure;altitude;pressure_sealevel;temperature;humidity
65872;BME280;52653;50.080;21.992;2023-01-27T00:00:37;99394.47;;;0.09;87.91
65872;BME280;52653;50.080;21.992;2023-01-27T00:03:28;99395.22;;;0.14;87.52
65872;BME280;52653;50.080;21.992;2023-01-27T00:06:19;99400.16;;;0.23;87.67
65872;BME280;52653;50.080;21.992;2023-01-27T00:09:03;99398.66;;;0.34;87.75
65872;BME280;52653;50.080;21.992;2023-01-27T00:11:54;99397.44;;;0.43;87.53
65872;BME280;52653;50.080;21.992;2023-01-27T00:15:03;99395.15;;;0.51;87.32
65872;BME280;52653;50.080;21.992;2023-01-27T00:17:56;99394.30;;;0.62;87.18
65872;BME280;52653;50.080;21.992;2023-01-27T00:20:49;99392.75;;;0.72;87.16
65872;BME280;52653;50.080;21.992;2023-01-27T00:23:57;99390.37;;;0.73;86.43
65872;BME280;52653;50.080;21.992;2023-01-27T00:27:06;99389.55;;;0.69;86.29
65872;BME280;52653;50.080;21.992;2023-01-27T00:29:58;99387.26;;;0.63;86.17
65872;BME280;52653;50.080;21.992;2023-01-27T00:32:52;99388.06;;;0.56;86.37
65872;BME280;52653;50.080;21.992;2023-01-27T00:36:01;99389.01;;;0.49;86.25
65872;BME280;52653;50.080;21.992;2023-01-27T00:38:52;99382.39;;;0.42;86.43
65872;BME280;52653;50.080;21.992;2023-01-27T00:41:43;99386.27;;;0.34;86.43
65872;BME280;52653;50.080;21.992;2023-01-27T00:44:35;99383.42;;;0.18;86.25
65872;BME280;52653;50.080;21.992;2023-01-27T00:47:26;99386.98;;;0.02;86.65
65872;BME280;52653;50.080;21.992;2023-01-27T00:50:17;99382.20;;;-0.07;86.83
65872;BME280;52653;50.080;21.992;2023-01-27T00:53:08;99384.41;;;-0.12;87.10
65872;BME280;52653;50.080;21.992;2023-01-27T00:56:00;99385.96;;;-0.21;87.25
65872;BME280;52653;50.080;21.992;2023-01-27T00:58:51;99380.50;;;-0.28;87.62
65872;BME280;52653;50.080;21.992;2023-01-27T01:01:42;99377.38;;;-0.29;87.85
65872;BME280;52653;50.080;21.992;2023-01-27T01:04:33;99371.88;;;-0.29;88.10
65872;BME280;52653;50.080;21.992;2023-01-27T01:07:18;99373.89;;;-0.25;88.17
65872;BME280;52653;50.080;21.992;2023-01-27T01:10:10;99372.20;;;-0.20;88.24
65872;BME280;52653;50.080;21.992;2023-01-27T01:13:02;99375.05;;;-0.13;88.25
65872;BME280;52653;50.080;21.992;2023-01-27T01:15:53;99376.27;;;-0.08;88.08
65872;BME280;52653;50.080;21.992;2023-01-27T01:18:45;99372.96;;;-0.05;87.92
65872;BME280;52653;50.080;21.992;2023-01-27T01:21:37;99370.57;;;0.01;88.16
65872;BME280;52653;50.080;21.992;2023-01-27T01:24:29;99372.33;;;0.07;88.11
65872;BME280;52653;50.080;21.992;2023-01-27T01:27:40;99369.00;;;0.10;87.70
65872;BME280;52653;50.080;21.992;2023-01-27T01:30:34;99368.88;;;0.12;87.50
65872;BME280;52653;50.080;21.992;2023-01-27T01:33:27;99366.39;;;0.19;87.99
65872;BME280;52653;50.080;21.992;2023-01-27T01:36:18;99367.58;;;0.27;87.95
65872;BME280;52653;50.080;21.992;2023-01-27T01:39:08;99365.05;;;0.35;87.90
65872;BME280;52653;50.080;21.992;2023-01-27T01:41:59;99362.77;;;0.43;87.92
65872;BME280;52653;50.080;21.992;2023-01-27T01:44:53;99368.04;;;0.51;87.62
65872;BME280;52653;50.080;21.992;2023-01-27T01:48:04;99371.20;;;0.52;87.31
65872;BME280;52653;50.080;21.992;2023-01-27T01:50:57;99371.71;;;0.47;86.83
65872;BME280;52653;50.080;21.992;2023-01-27T01:53:52;99366.89;;;0.43;87.08
65872;BME280;52653;50.080;21.992;2023-01-27T01:56:46;99366.14;;;0.36;86.89
65872;BME280;52653;50.080;21.992;2023-01-27T01:59:38;99364.67;;;0.29;86.88
65872;BME280;52653;50.080;21.992;2023-01-27T02:02:30;99365.55;;;0.19;86.99
65872;BME280;52653;50.080;21.992;2023-01-27T02:05:23;99368.83;;;0.10;87.08
65872;BME280;52653;50.080;21.992;2023-01-27T02:08:16;99367.35;;;0.02;87.30
65872;BME280;52653;50.080;21.992;2023-01-27T02:11:10;99366.35;;;-0.06;87.46
65872;BME280;52653;50.080;21.992;2023-01-27T02:14:01;99368.27;;;-0.15;87.65
65872;BME280;52653;50.080;21.992;2023-01-27T02:16:53;99367.55;;;-0.24;87.98
65872;BME280;52653;50.080;21.992;2023-01-27T02:19:47;99369.08;;;-0.30;88.06
65872;BME280;52653;50.080;21.992;2023-01-27T02:22:40;99367.79;;;-0.32;88.38
65872;BME280;52653;50.080;21.992;2023-01-27T02:25:38;99365.94;;;-0.31;88.73
65872;BME280;52653;50.080;21.992;2023-01-27T02:28:20;99363.10;;;-0.28;88.76
65872;BME280;52653;50.080;21.992;2023-01-27T02:31:12;99365.15;;;-0.24;89.00
65872;BME280;52653;50.080;21.992;2023-01-27T02:34:03;99365.45;;;-0.21;89.01
65872;BME280;52653;50.080;21.992;2023-01-27T02:36:56;99366.37;;;-0.15;89.06
65872;BME280;52653;50.080;21.992;2023-01-27T02:39:49;99369.06;;;-0.08;89.13
65872;BME280;52653;50.080;21.992;2023-01-27T02:42:42;99371.84;;;-0.02;88.90
65872;BME280;52653;50.080;21.992;2023-01-27T02:45:33;99372.02;;;0.03;88.83
65872;BME280;52653;50.080;21.992;2023-01-27T02:48:24;99370.42;;;0.07;88.68
65872;BME280;52653;50.080;21.992;2023-01-27T02:51:16;99367.17;;;0.08;88.60
65872;BME280;52653;50.080;21.992;2023-01-27T02:54:08;99370.91;;;0.11;88.53
65872;BME280;52653;50.080;21.992;2023-01-27T02:57:00;99382.19;;;0.12;88.42
65872;BME280;52653;50.080;21.992;2023-01-27T02:59:51;99376.58;;;0.14;88.31
65872;BME280;52653;50.080;21.992;2023-01-27T03:02:42;99377.53;;;0.17;88.42
65872;BME280;52653;50.080;21.992;2023-01-27T03:05:33;99375.08;;;0.20;88.36
65872;BME280;52653;50.080;21.992;2023-01-27T03:08:24;99377.13;;;0.20;88.13
65872;BME280;52653;50.080;21.992;2023-01-27T03:11:15;99372.95;;;0.19;88.04
65872;BME280;52653;50.080;21.992;2023-01-27T03:14:28;99378.52;;;0.15;87.94
65872;BME280;52653;50.080;21.992;2023-01-27T03:17:29;99372.10;;;0.10;87.83
65872;BME280;52653;50.080;21.992;2023-01-27T03:20:38;99372.11;;;0.10;88.02
65872;BME280;52653;50.080;21.992;2023-01-27T03:23:31;99370.16;;;0.09;88.05
65872;BME280;52653;50.080;21.992;2023-01-27T03:26:24;99373.16;;;0.11;88.20
65872;BME280;52653;50.080;21.992;2023-01-27T03:29:15;99368.85;;;0.11;88.08
65872;BME280;52653;50.080;21.992;2023-01-27T03:32:23;99369.21;;;0.11;88.11
65872;BME280;52653;50.080;21.992;2023-01-27T03:35:15;99373.89;;;0.12;88.04
65872;BME280;52653;50.080;21.992;2023-01-27T03:38:08;99374.67;;;0.10;88.06
65872;BME280;52653;50.080;21.992;2023-01-27T03:41:18;99374.89;;;0.11;88.18
65872;BME280;52653;50.080;21.992;2023-01-27T03:44:27;99370.55;;;0.14;88.45
65872;BME280;52653;50.080;21.992;2023-01-27T03:47:35;99370.66;;;0.18;88.31
65872;BME280;52653;50.080;21.992;2023-01-27T03:50:27;99368.52;;;0.21;88.33
65872;BME280;52653;50.080;21.992;2023-01-27T03:53:41;99369.64;;;0.23;87.96
65872;BME280;52653;50.080;21.992;2023-01-27T03:56:33;99368.14;;;0.25;87.88
65872;BME280;52653;50.080;21.992;2023-01-27T03:59:17;99363.05;;;0.26;87.66
65872;BME280;52653;50.080;21.992;2023-01-27T04:02:08;99359.94;;;0.32;87.75
65872;BME280;52653;50.080;21.992;2023-01-27T04:05:16;99361.67;;;0.37;87.63
65872;BME280;52653;50.080;21.992;2023-01-27T04:08:25;99354.10;;;0.42;87.66
65872;BME280;52653;50.080;21.992;2023-01-27T04:11:16;99360.67;;;0.42;87.28
65872;BME280;52653;50.080;21.992;2023-01-27T04:14:25;99362.30;;;0.39;87.37
65872;BME280;52653;50.080;21.992;2023-01-27T04:17:18;99367.65;;;0.35;87.44
65872;BME280;52653;50.080;21.992;2023-01-27T04:20:12;99364.64;;;0.28;87.29
65872;BME280;52653;50.080;21.992;2023-01-27T04:22:56;99367.27;;;0.19;87.24
65872;BME280;52653;50.080;21.992;2023-01-27T04:25:47;99364.48;;;0.09;87.42
65872;BME280;52653;50.080;21.992;2023-01-27T04:28:43;99368.28;;;-0.00;87.55
65872;BME280;52653;50.080;21.992;2023-01-27T04:31:33;99369.39;;;-0.08;87.97
65872;BME280;52653;50.080;21.992;2023-01-27T04:34:26;99368.92;;;-0.15;88.15
65872;BME280;52653;50.080;21.992;2023-01-27T04:37:17;99366.23;;;-0.23;88.46
65872;BME280;52653;50.080;21.992;2023-01-27T04:40:09;99366.50;;;-0.29;88.51
65872;BME280;52653;50.080;21.992;2023-01-27T04:43:00;99368.23;;;-0.34;88.79
65872;BME280;52653;50.080;21.992;2023-01-27T04:45:52;99365.98;;;-0.39;88.98
65872;BME280;52653;50.080;21.992;2023-01-27T04:48:43;99366.33;;;-0.43;89.25
65872;BME280;52653;50.080;21.992;2023-01-27T04:51:35;99367.11;;;-0.45;89.31
65872;BME280;52653;50.080;21.992;2023-01-27T04:54:27;99367.19;;;-0.43;89.45
65872;BME280;52653;50.080;21.992;2023-01-27T04:57:18;99367.02;;;-0.39;89.53
65872;BME280;52653;50.080;21.992;2023-01-27T05:00:02;99367.23;;;-0.33;89.53
65872;BME280;52653;50.080;21.992;2023-01-27T05:02:54;99367.13;;;-0.26;89.48
65872;BME280;52653;50.080;21.992;2023-01-27T05:05:45;99364.35;;;-0.18;89.47
65872;BME280;52653;50.080;21.992;2023-01-27T05:08:36;99366.45;;;-0.08;89.43
65872;BME280;52653;50.080;21.992;2023-01-27T05:11:28;99367.23;;;-0.01;89.21
65872;BME280;52653;50.080;21.992;2023-01-27T05:14:19;99367.40;;;0.04;89.01
65872;BME280;52653;50.080;21.992;2023-01-27T05:17:12;99365.98;;;0.08;89.06
65872;BME280;52653;50.080;21.992;2023-01-27T05:20:03;99364.21;;;0.12;89.02
65872;BME280;52653;50.080;21.992;2023-01-27T05:22:49;99365.54;;;0.10;88.47
65872;BME280;52653;50.080;21.992;2023-01-27T05:25:41;99361.64;;;0.07;88.46
65872;BME280;52653;50.080;21.992;2023-01-27T05:28:32;99361.84;;;0.03;88.49
65872;BME280;52653;50.080;21.992;2023-01-27T05:31:24;99363.37;;;-0.03;88.39
65872;BME280;52653;50.080;21.992;2023-01-27T05:34:16;99360.10;;;-0.07;88.45
65872;BME280;52653;50.080;21.992;2023-01-27T05:37:00;99363.95;;;-0.11;88.56
65872;BME280;52653;50.080;21.992;2023-01-27T05:39:52;99364.85;;;-0.14;88.74
65872;BME280;52653;50.080;21.992;2023-01-27T05:42:44;99367.16;;;-0.17;88.87
65872;BME280;52653;50.080;21.992;2023-01-27T05:45:36;99371.55;;;-0.19;88.70
65872;BME280;52653;50.080;21.992;2023-01-27T05:48:27;99368.88;;;-0.22;88.93
65872;BME280;52653;50.080;21.992;2023-01-27T05:51:19;99366.95;;;-0.23;88.91
65872;BME280;52653;50.080;21.992;2023-01-27T05:54:11;99371.08;;;-0.23;89.12
65872;BME280;52653;50.080;21.992;2023-01-27T05:57:03;99369.83;;;-0.24;89.00
65872;BME280;52653;50.080;21.992;2023-01-27T05:59:46;99371.96;;;-0.26;89.03
65872;BME280;52653;50.080;21.992;2023-01-27T06:02:37;99377.98;;;-0.26;89.06
65872;BME280;52653;50.080;21.992;2023-01-27T06:05:29;99379.95;;;-0.25;89.09
65872;BME280;52653;50.080;21.992;2023-01-27T06:08:20;99383.78;;;-0.24;89.09
65872;BME280;52653;50.080;21.992;2023-01-27T06:11:01;99378.33;;;-0.23;89.09
65872;BME280;52653;50.080;21.992;2023-01-27T06:13:54;99378.79;;;-0.19;89.16
65872;BME280;52653;50.080;21.992;2023-01-27T06:16:45;99381.44;;;-0.17;89.02
65872;BME280;52653;50.080;21.992;2023-01-27T06:19:37;99384.70;;;-0.18;88.85
65872;BME280;52653;50.080;21.992;2023-01-27T06:22:28;99387.88;;;-0.16;88.88
65872;BME280;52653;50.080;21.992;2023-01-27T06:25:19;99388.75;;;-0.15;89.01
65872;BME280;52653;50.080;21.992;2023-01-27T06:28:10;99393.86;;;-0.17;88.71
65872;BME280;52653;50.080;21.992;2023-01-27T06:31:17;99390.92;;;-0.17;88.77
65872;BME280;52653;50.080;21.992;2023-01-27T06:34:10;99391.95;;;-0.17;88.73
65872;BME280;52653;50.080;21.992;2023-01-27T06:37:01;99393.66;;;-0.18;88.75
65872;BME280;52653;50.080;21.992;2023-01-27T06:39:52;99400.58;;;-0.17;88.71
65872;BME280;52653;50.080;21.992;2023-01-27T06:42:43;99397.77;;;-0.18;88.58
65872;BME280;52653;50.080;21.992;2023-01-27T06:45:24;99403.04;;;-0.16;88.75
65872;BME280;52653;50.080;21.992;2023-01-27T06:48:16;99401.89;;;-0.14;88.52
65872;BME280;52653;50.080;21.992;2023-01-27T06:51:07;99402.02;;;-0.11;88.66
65872;BME280;52653;50.080;21.992;2023-01-27T06:53:58;99403.89;;;-0.07;88.68
65872;BME280;52653;50.080;21.992;2023-01-27T06:56:49;99403.64;;;-0.05;88.51
65872;BME280;52653;50.080;21.992;2023-01-27T06:59:40;99408.19;;;-0.03;88.22
65872;BME280;52653;50.080;21.992;2023-01-27T07:02:31;99409.83;;;-0.00;88.20
65872;BME280;52653;50.080;21.992;2023-01-27T07:05:23;99407.68;;;0.02;87.96
65872;BME280;52653;50.080;21.992;2023-01-27T07:08:14;99405.99;;;0.03;87.79
65872;BME280;52653;50.080;21.992;2023-01-27T07:10:58;99402.75;;;0.04;87.71
65872;BME280;52653;50.080;21.992;2023-01-27T07:13:51;99407.02;;;0.08;87.79
65872;BME280;52653;50.080;21.992;2023-01-27T07:16:42;99409.02;;;0.11;87.42
65872;BME280;52653;50.080;21.992;2023-01-27T07:19:33;99409.33;;;0.10;87.22
65872;BME280;52653;50.080;21.992;2023-01-27T07:22:25;99410.27;;;0.12;87.27
65872;BME280;52653;50.080;21.992;2023-01-27T07:25:16;99413.84;;;0.14;87.13
65872;BME280;52653;50.080;21.992;2023-01-27T07:27:58;99420.12;;;0.16;87.08
65872;BME280;52653;50.080;21.992;2023-01-27T07:30:50;99428.62;;;0.18;86.90
65872;BME280;52653;50.080;21.992;2023-01-27T07:33:41;99429.50;;;0.18;86.77
65872;BME280;52653;50.080;21.992;2023-01-27T07:36:32;99431.47;;;0.20;86.62
65872;BME280;52653;50.080;21.992;2023-01-27T07:39:23;99431.69;;;0.22;86.73
65872;BME280;52653;50.080;21.992;2023-01-27T07:41:55;99433.67;;;0.24;86.86
65872;BME280;52653;50.080;21.992;2023-01-27T07:44:47;99434.00;;;0.28;86.78
65872;BME280;52653;50.080;21.992;2023-01-27T07:47:38;99428.64;;;0.32;86.49
65872;BME280;52653;50.080;21.992;2023-01-27T07:50:29;99426.88;;;0.36;86.18
65872;BME280;52653;50.080;21.992;2023-01-27T07:53:25;99426.63;;;0.39;85.78
65872;BME280;52653;50.080;21.992;2023-01-27T07:56:16;99426.66;;;0.40;85.76
65872;BME280;52653;50.080;21.992;2023-01-27T07:59:08;99424.67;;;0.42;85.73
65872;BME280;52653;50.080;21.992;2023-01-27T08:01:59;99425.29;;;0.45;85.55
65872;BME280;52653;50.080;21.992;2023-01-27T08:04:40;99428.35;;;0.48;85.61
65872;BME280;52653;50.080;21.992;2023-01-27T08:07:43;99425.10;;;0.50;84.91
65872;BME280;52653;50.080;21.992;2023-01-27T08:10:34;99431.08;;;0.52;84.99
65872;BME280;52653;50.080;21.992;2023-01-27T08:13:25;99432.30;;;0.52;84.42
65872;BME280;52653;50.080;21.992;2023-01-27T08:16:16;99432.90;;;0.55;84.84
65872;BME280;52653;50.080;21.992;2023-01-27T08:19:08;99438.10;;;0.61;84.63
65872;BME280;52653;50.080;21.992;2023-01-27T08:21:59;99442.48;;;0.67;84.57
65872;BME280;52653;50.080;21.992;2023-01-27T08:24:50;99442.42;;;0.71;84.18
65872;BME280;52653;50.080;21.992;2023-01-27T08:27:31;99446.65;;;0.73;83.77
65872;BME280;52653;50.080;21.992;2023-01-27T08:30:23;99445.27;;;0.78;83.42
65872;BME280;52653;50.080;21.992;2023-01-27T08:32:55;99440.89;;;0.81;83.07
65872;BME280;52653;50.080;21.992;2023-01-27T08:35:46;99441.45;;;0.87;83.25
65872;BME280;52653;50.080;21.992;2023-01-27T08:38:37;99440.23;;;0.92;82.65
65872;BME280;52653;50.080;21.992;2023-01-27T08:41:29;99441.45;;;0.93;82.41
65872;BME280;52653;50.080;21.992;2023-01-27T08:44:20;99438.11;;;0.96;82.12
65872;BME280;52653;50.080;21.992;2023-01-27T08:47:12;99439.30;;;1.00;82.31
65872;BME280;52653;50.080;21.992;2023-01-27T08:50:04;99443.34;;;1.07;82.41
65872;BME280;52653;50.080;21.992;2023-01-27T08:52:56;99454.64;;;1.15;82.36
65872;BME280;52653;50.080;21.992;2023-01-27T08:55:40;99453.23;;;1.19;81.95
65872;BME280;52653;50.080;21.992;2023-01-27T08:58:32;99454.77;;;1.24;81.84
65872;BME280;52653;50.080;21.992;2023-01-27T09:01:23;99454.64;;;1.30;82.01
65872;BME280;52653;50.080;21.992;2023-01-27T09:04:05;99454.79;;;1.35;81.49
65872;BME280;52653;50.080;21.992;2023-01-27T09:06:56;99461.49;;;1.39;81.22
65872;BME280;52653;50.080;21.992;2023-01-27T09:09:36;99468.67;;;1.41;80.87
65872;BME280;52653;50.080;21.992;2023-01-27T09:12:27;99461.98;;;1.43;80.87
65872;BME280;52653;50.080;21.992;2023-01-27T09:15:17;99460.14;;;1.45;80.44
65872;BME280;52653;50.080;21.992;2023-01-27T09:18:08;99452.68;;;1.50;80.17
65872;BME280;52653;50.080;21.992;2023-01-27T09:21:02;99452.30;;;1.54;79.90
65872;BME280;52653;50.080;21.992;2023-01-27T09:23:48;99460.39;;;1.58;79.85
65872;BME280;52653;50.080;21.992;2023-01-27T09:26:23;99460.90;;;1.58;79.43
65872;BME280;52653;50.080;21.992;2023-01-27T09:29:08;99464.11;;;1.61;79.75
65872;BME280;52653;50.080;21.992;2023-01-27T09:32:00;99469.72;;;1.64;79.16
65872;BME280;52653;50.080;21.992;2023-01-27T09:34:51;99467.06;;;1.67;79.31
65872;BME280;52653;50.080;21.992;2023-01-27T09:37:43;99466.97;;;1.75;79.55
65872;BME280;52653;50.080;21.992;2023-01-27T09:40:38;99464.88;;;1.80;78.81
65872;BME280;52653;50.080;21.992;2023-01-27T09:43:35;99462.84;;;1.81;78.50
65872;BME280;52653;50.080;21.992;2023-01-27T09:46:40;99465.78;;;1.87;78.80
65872;BME280;52653;50.080;21.992;2023-01-27T09:49:42;99464.40;;;1.92;78.47
65872;BME280;52653;50.080;21.992;2023-01-27T09:55:41;99462.52;;;2.04;78.14
65872;BME280;52653;50.080;21.992;2023-01-27T09:58:37;99462.83;;;2.09;77.92
65872;BME280;52653;50.080;21.992;2023-01-27T10:01:40;99456.23;;;2.14;77.35
65872;BME280;52653;50.080;21.992;2023-01-27T10:04:43;99453.75;;;2.17;77.15
65872;BME280;52653;50.080;21.992;2023-01-27T10:07:44;99444.73;;;2.23;77.32
65872;BME280;52653;50.080;21.992;2023-01-27T10:10:32;99437.27;;;2.34;76.91
65872;BME280;52653;50.080;21.992;2023-01-27T10:13:25;99433.09;;;2.46;76.66
65872;BME280;52653;50.080;21.992;2023-01-27T10:16:28;99426.48;;;2.56;76.02
65872;BME280;52653;50.080;21.992;2023-01-27T10:19:29;99424.67;;;2.66;75.52
65872;BME280;52653;50.080;21.992;2023-01-27T10:22:26;99423.41;;;2.71;74.92
65872;BME280;52653;50.080;21.992;2023-01-27T10:25:22;99421.98;;;2.76;74.87
65872;BME280;52653;50.080;21.992;2023-01-27T10:27:55;99424.54;;;2.87;74.83
65872;BME280;52653;50.080;21.992;2023-01-27T10:30:50;99421.77;;;2.94;74.22
65872;BME280;52653;50.080;21.992;2023-01-27T10:33:51;99415.27;;;3.04;74.13
65872;BME280;52653;50.080;21.992;2023-01-27T10:36:45;99415.71;;;3.15;72.70
65872;BME280;52653;50.080;21.992;2023-01-27T10:39:38;99413.07;;;3.27;72.23
65872;BME280;52653;50.080;21.992;2023-01-27T10:42:18;99413.25;;;3.41;72.23
65872;BME280;52653;50.080;21.992;2023-01-27T10:44:55;99413.60;;;3.42;71.53
65872;BME280;52653;50.080;21.992;2023-01-27T10:47:53;99416.90;;;3.34;71.13
65872;BME280;52653;50.080;21.992;2023-01-27T10:50:50;99412.09;;;3.30;70.99
65872;BME280;52653;50.080;21.992;2023-01-27T10:53:49;99416.63;;;3.23;70.61
65872;BME280;52653;50.080;21.992;2023-01-27T10:56:31;99417.67;;;3.17;71.19
65872;BME280;52653;50.080;21.992;2023-01-27T10:59:05;99419.84;;;3.14;71.38
65872;BME280;52653;50.080;21.992;2023-01-27T11:02:02;99419.81;;;3.13;71.46
65872;BME280;52653;50.080;21.992;2023-01-27T11:04:55;99425.48;;;3.11;71.11
65872;BME280;52653;50.080;21.992;2023-01-27T11:07:50;99424.65;;;3.05;71.45
65872;BME280;52653;50.080;21.992;2023-01-27T11:10:46;99422.88;;;2.96;71.58
65872;BME280;52653;50.080;21.992;2023-01-27T11:13:41;99422.63;;;2.87;72.09
65872;BME280;52653;50.080;21.992;2023-01-27T11:16:36;99420.81;;;2.78;72.69
65872;BME280;52653;50.080;21.992;2023-01-27T11:19:31;99421.65;;;2.64;72.60
65872;BME280;52653;50.080;21.992;2023-01-27T11:22:19;99417.33;;;2.51;72.89
65872;BME280;52653;50.080;21.992;2023-01-27T11:25:01;99415.25;;;2.39;72.84
65872;BME280;52653;50.080;21.992;2023-01-27T11:27:44;99416.27;;;2.32;73.29
65872;BME280;52653;50.080;21.992;2023-01-27T11:30:39;99415.13;;;2.28;73.96
65872;BME280;52653;50.080;21.992;2023-01-27T11:33:33;99411.28;;;2.33;74.07
65872;BME280;52653;50.080;21.992;2023-01-27T11:36:31;99408.61;;;2.43;73.56
65872;BME280;52653;50.080;21.992;2023-01-27T11:39:23;99416.97;;;2.51;73.39
65872;BME280;52653;50.080;21.992;2023-01-27T11:42:17;99416.77;;;2.56;73.03
65872;BME280;52653;50.080;21.992;2023-01-27T11:45:12;99417.64;;;2.56;73.08
65872;BME280;52653;50.080;21.992;2023-01-27T11:48:06;99421.81;;;2.51;73.78
65872;BME280;52653;50.080;21.992;2023-01-27T11:50:58;99420.40;;;2.37;73.71
65872;BME280;52653;50.080;21.992;2023-01-27T11:53:52;99419.15;;;2.24;74.15
65872;BME280;52653;50.080;21.992;2023-01-27T11:56:47;99418.79;;;2.11;74.59
65872;BME280;52653;50.080;21.992;2023-01-27T11:59:38;99413.79;;;2.00;74.92
65872;BME280;52653;50.080;21.992;2023-01-27T12:02:28;99412.55;;;1.93;75.22
65872;BME280;52653;50.080;21.992;2023-01-27T12:05:14;99407.34;;;1.88;75.43
65872;BME280;52653;50.080;21.992;2023-01-27T12:08:06;99410.83;;;1.89;75.84
65872;BME280;52653;50.080;21.992;2023-01-27T12:11:02;99411.13;;;1.92;76.00
65872;BME280;52653;50.080;21.992;2023-01-27T12:14:11;99413.94;;;1.93;75.70
65872;BME280;52653;50.080;21.992;2023-01-27T12:17:03;99410.86;;;1.89;75.46
65872;BME280;52653;50.080;21.992;2023-01-27T12:19:56;99408.27;;;1.90;75.72
65872;BME280;52653;50.080;21.992;2023-01-27T12:22:43;99408.70;;;1.87;75.45
65872;BME280;52653;50.080;21.992;2023-01-27T12:25:41;99408.21;;;1.82;75.83
65872;BME280;52653;50.080;21.992;2023-01-27T12:28:34;99407.00;;;1.70;75.65
65872;BME280;52653;50.080;21.992;2023-01-27T12:31:27;99412.46;;;1.56;75.46
65872;BME280;52653;50.080;21.992;2023-01-27T12:34:20;99417.91;;;1.49;76.06
65872;BME280;52653;50.080;21.992;2023-01-27T12:37:20;99418.83;;;1.45;76.03
65872;BME280;52653;50.080;21.992;2023-01-27T12:39:58;99415.01;;;1.44;76.42
65872;BME280;52653;50.080;21.992;2023-01-27T12:43:02;99415.05;;;1.46;76.27
65872;BME280;52653;50.080;21.992;2023-01-27T12:46:04;99417.20;;;1.48;76.64
65872;BME280;52653;50.080;21.992;2023-01-27T12:49:00;99409.83;;;1.51;76.72
65872;BME280;52653;50.080;21.992;2023-01-27T12:51:53;99415.56;;;1.52;76.81
65872;BME280;52653;50.080;21.992;2023-01-27T12:54:45;99415.83;;;1.48;76.66
65872;BME280;52653;50.080;21.992;2023-01-27T12:57:29;99417.16;;;1.47;76.52
65872;BME280;52653;50.080;21.992;2023-01-27T13:00:22;99423.16;;;1.45;76.44
65872;BME280;52653;50.080;21.992;2023-01-27T13:03:15;99425.71;;;1.39;75.94
65872;BME280;52653;50.080;21.992;2023-01-27T13:06:09;99425.64;;;1.31;76.20
65872;BME280;52653;50.080;21.992;2023-01-27T13:09:05;99426.58;;;1.23;76.44
65872;BME280;52653;50.080;21.992;2023-01-27T13:12:03;99425.53;;;1.17;76.83
65872;BME280;52653;50.080;21.992;2023-01-27T13:15:05;99425.84;;;1.11;77.22
65872;BME280;52653;50.080;21.992;2023-01-27T13:18:11;99425.27;;;1.03;77.22
65872;BME280;52653;50.080;21.992;2023-01-27T13:21:07;99413.04;;;1.00;77.48
65872;BME280;52653;50.080;21.992;2023-01-27T13:24:02;99413.30;;;0.98;77.36
65872;BME280;52653;50.080;21.992;2023-01-27T13:26:54;99418.88;;;0.94;77.58
65872;BME280;52653;50.080;21.992;2023-01-27T13:29:48;99421.92;;;0.92;77.56
65872;BME280;52653;50.080;21.992;2023-01-27T13:32:45;99419.33;;;0.92;77.69
65872;BME280;52653;50.080;21.992;2023-01-27T13:35:40;99415.88;;;0.87;77.32
65872;BME280;52653;50.080;21.992;2023-01-27T13:38:37;99403.59;;;0.76;76.98
65872;BME280;52653;50.080;21.992;2023-01-27T13:41:23;99398.98;;;0.67;77.11
65872;BME280;52653;50.080;21.992;2023-01-27T13:44:18;99400.52;;;0.62;77.09
65872;BME280;52653;50.080;21.992;2023-01-27T13:47:15;99408.13;;;0.57;76.78
65872;BME280;52653;50.080;21.992;2023-01-27T13:50:01;99406.02;;;0.56;76.82
65872;BME280;52653;50.080;21.992;2023-01-27T13:52:56;99416.69;;;0.60;76.62
65872;BME280;52653;50.080;21.992;2023-01-27T13:55:56;99417.55;;;0.65;76.35
65872;BME280;52653;50.080;21.992;2023-01-27T13:58:52;99414.44;;;0.70;75.85
65872;BME280;52653;50.080;21.992;2023-01-27T14:01:53;99418.07;;;0.70;74.57
65872;BME280;52653;50.080;21.992;2023-01-27T14:04:52;99423.29;;;0.66;74.46
65872;BME280;52653;50.080;21.992;2023-01-27T14:07:46;99426.34;;;0.65;74.86
65872;BME280;52653;50.080;21.992;2023-01-27T14:10:33;99427.66;;;0.64;75.38
65872;BME280;52653;50.080;21.992;2023-01-27T14:13:09;99432.93;;;0.62;75.20
65872;BME280;52653;50.080;21.992;2023-01-27T14:16:06;99428.45;;;0.56;74.35
65872;BME280;52653;50.080;21.992;2023-01-27T14:18:49;99429.45;;;0.50;73.53
65872;BME280;52653;50.080;21.992;2023-01-27T14:21:42;99432.02;;;0.45;73.89
65872;BME280;52653;50.080;21.992;2023-01-27T14:24:50;99430.33;;;0.41;73.60
65872;BME280;52653;50.080;21.992;2023-01-27T14:27:43;99439.75;;;0.39;73.84
65872;BME280;52653;50.080;21.992;2023-01-27T14:30:36;99448.20;;;0.39;74.00
65872;BME280;52653;50.080;21.992;2023-01-27T14:33:36;99440.99;;;0.36;73.18
65872;BME280;52653;50.080;21.992;2023-01-27T14:36:33;99441.85;;;0.35;73.28
65872;BME280;52653;50.080;21.992;2023-01-27T14:39:22;99441.17;;;0.36;73.44
65872;BME280;52653;50.080;21.992;2023-01-27T14:42:15;99442.48;;;0.34;73.25
65872;BME280;52653;50.080;21.992;2023-01-27T14:45:12;99448.19;;;0.29;72.76
65872;BME280;52653;50.080;21.992;2023-01-27T14:48:09;99453.67;;;0.24;72.78
65872;BME280;52653;50.080;21.992;2023-01-27T14:51:07;99453.26;;;0.17;73.17
65872;BME280;52653;50.080;21.992;2023-01-27T14:54:09;99450.84;;;0.13;73.61
65872;BME280;52653;50.080;21.992;2023-01-27T14:57:10;99458.98;;;0.09;74.17
65872;BME280;52653;50.080;21.992;2023-01-27T14:59:48;99457.50;;;0.06;74.71
65872;BME280;52653;50.080;21.992;2023-01-27T15:02:45;99460.98;;;0.03;74.81
65872;BME280;52653;50.080;21.992;2023-01-27T15:05:38;99463.29;;;-0.00;74.76
65872;BME280;52653;50.080;21.992;2023-01-27T15:08:24;99460.04;;;-0.04;74.77
65872;BME280;52653;50.080;21.992;2023-01-27T15:11:14;99463.59;;;-0.06;74.90
65872;BME280;52653;50.080;21.992;2023-01-27T15:14:20;99468.67;;;-0.08;74.80